createdAt,value
2017-10-12T00:00:44.151Z,3.30
2017-10-12T00:03:18.605Z,3.57
2017-10-12T00:05:54.641Z,2.83
2017-10-12T00:08:31.414Z,3.07
2017-10-12T00:11:14.944Z,3.30
2017-10-12T00:13:50.154Z,2.90
2017-10-12T00:16:26.279Z,3.30
2017-10-12T00:19:02.964Z,3.50
2017-10-12T00:21:44.902Z,3.97
2017-10-12T00:24:20.180Z,3.90
2017-10-12T00:26:56.309Z,2.97
2017-10-12T00:29:31.408Z,3.47
2017-10-12T00:34:38.345Z,3.60
2017-10-12T00:37:14.714Z,4.83
2017-10-12T00:39:49.893Z,4.93
2017-10-12T00:42:25.101Z,5.80
2017-10-12T00:45:05.534Z,5.87
2017-10-12T00:47:40.878Z,5.23
2017-10-12T00:50:16.552Z,4.80
2017-10-12T00:52:51.322Z,4.30
2017-10-12T00:55:27.856Z,3.80
2017-10-12T00:58:03.594Z,3.93
2017-10-12T01:00:40.636Z,3.93
2017-10-12T01:03:17.174Z,4.33
2017-10-12T01:05:57.428Z,3.30
2017-10-12T01:08:32.767Z,3.57
2017-10-12T01:11:08.182Z,3.13
2017-10-12T01:13:46.549Z,3.00
2017-10-12T01:16:33.557Z,3.70
2017-10-12T01:19:11.343Z,3.33
2017-10-12T01:21:48.338Z,3.70
2017-10-12T01:24:25.038Z,3.90
2017-10-12T01:26:59.720Z,3.60
2017-10-12T01:29:36.529Z,3.80
2017-10-12T01:32:11.957Z,4.17
2017-10-12T01:34:47.924Z,3.70
2017-10-12T01:37:27.524Z,3.77
2017-10-12T01:40:05.875Z,3.47
2017-10-12T01:42:42.898Z,4.17
2017-10-12T01:45:28.098Z,3.60
2017-10-12T01:48:12.132Z,3.83
2017-10-12T01:50:53.909Z,3.77
2017-10-12T01:53:29.327Z,3.73
2017-10-12T01:56:11.876Z,4.00
2017-10-12T01:58:46.784Z,3.80
2017-10-12T02:01:28.417Z,4.17
2017-10-12T02:04:04.511Z,3.90
2017-10-12T02:06:45.857Z,6.30
2017-10-12T02:09:25.654Z,5.13
2017-10-12T02:12:03.477Z,4.10
2017-10-12T02:14:40.869Z,4.87
2017-10-12T02:17:16.246Z,4.30
2017-10-12T02:19:50.862Z,4.40
2017-10-12T02:22:29.378Z,4.17
2017-10-12T02:25:06.282Z,4.07
2017-10-12T02:27:41.017Z,4.10
2017-10-12T02:30:15.759Z,3.93
2017-10-12T02:35:50.530Z,5.40
2017-10-12T02:38:25.654Z,4.43
2017-10-12T02:41:03.222Z,4.30
2017-10-12T02:43:40.045Z,4.40
2017-10-12T02:46:22.466Z,4.10
2017-10-12T02:48:59.350Z,3.80
2017-10-12T02:51:40.788Z,4.53
2017-10-12T02:54:15.780Z,4.67
2017-10-12T02:56:52.487Z,5.10
2017-10-12T02:59:32.845Z,4.53
2017-10-12T03:02:09.884Z,4.77
2017-10-12T03:04:45.517Z,4.40
2017-10-12T03:07:29.813Z,5.40
2017-10-12T03:10:05.323Z,4.90
2017-10-12T03:12:41.089Z,4.43
2017-10-12T03:15:16.037Z,4.80
2017-10-12T03:17:58.537Z,4.93
2017-10-12T03:20:35.064Z,5.17
2017-10-12T03:23:12.301Z,5.03
2017-10-12T03:25:51.998Z,5.40
2017-10-12T03:28:32.884Z,5.30
2017-10-12T03:31:07.619Z,4.80
2017-10-12T03:33:45.111Z,4.20
2017-10-12T03:36:21.837Z,4.50
2017-10-12T03:38:59.462Z,5.43
2017-10-12T03:41:37.120Z,5.23
2017-10-12T03:44:12.539Z,4.90
2017-10-12T03:47:04.071Z,5.10
2017-10-12T03:49:32.524Z,5.30
2017-10-12T03:52:12.201Z,5.47
2017-10-12T03:54:49.875Z,6.10
2017-10-12T03:57:25.710Z,7.30
2017-10-12T04:00:00.560Z,6.77
2017-10-12T04:02:35.866Z,9.03
2017-10-12T04:05:14.120Z,7.07
2017-10-12T04:07:49.418Z,5.90
2017-10-12T04:10:24.001Z,5.70
2017-10-12T04:12:59.406Z,5.67
2017-10-12T04:15:38.140Z,5.40
2017-10-12T04:18:13.543Z,4.87
2017-10-12T04:20:51.707Z,5.50
2017-10-12T04:23:26.854Z,6.20
2017-10-12T04:26:06.481Z,5.87
2017-10-12T04:28:41.443Z,5.73
2017-10-12T04:31:09.871Z,6.60
2017-10-12T04:33:45.347Z,6.17
2017-10-12T04:36:22.118Z,6.20
2017-10-12T04:38:57.448Z,5.93
2017-10-12T04:41:35.272Z,6.10
2017-10-12T04:44:10.708Z,6.10
2017-10-12T04:46:46.426Z,5.30
2017-10-12T04:49:21.047Z,5.63
2017-10-12T04:51:56.447Z,5.70
2017-10-12T04:54:36.664Z,5.60
2017-10-12T04:57:11.674Z,6.10
2017-10-12T04:59:59.459Z,6.10
2017-10-12T05:02:40.741Z,6.57
2017-10-12T05:05:07.432Z,5.90
2017-10-12T05:07:46.348Z,5.60
2017-10-12T05:10:20.985Z,5.03
2017-10-12T05:13:00.956Z,4.97
2017-10-12T05:15:36.084Z,5.20
2017-10-12T05:18:12.079Z,6.47
2017-10-12T05:20:46.704Z,5.23
2017-10-12T05:23:21.565Z,5.07
2017-10-12T05:25:56.885Z,4.90
2017-10-12T05:28:31.562Z,5.13
2017-10-12T05:31:07.025Z,4.90
2017-10-12T05:36:22.317Z,6.10
2017-10-12T05:38:57.333Z,5.73
2017-10-12T05:41:31.999Z,5.80
2017-10-12T05:44:07.833Z,6.20
2017-10-12T05:46:42.232Z,5.87
2017-10-12T05:49:17.113Z,6.10
2017-10-12T05:51:51.793Z,9.47
2017-10-12T05:54:27.257Z,7.20
2017-10-12T05:57:02.422Z,5.00
2017-10-12T05:59:39.247Z,4.70
2017-10-12T06:02:14.407Z,5.53
2017-10-12T06:04:49.632Z,4.30
2017-10-12T06:07:24.507Z,4.60
2017-10-12T06:09:59.218Z,4.27
2017-10-12T06:12:33.989Z,5.63
2017-10-12T06:15:09.180Z,5.10
2017-10-12T06:17:44.367Z,6.23
2017-10-12T06:20:22.626Z,6.03
2017-10-12T06:22:57.769Z,5.57
2017-10-12T06:25:32.479Z,5.83
2017-10-12T06:28:07.254Z,6.30
2017-10-12T06:33:12.952Z,6.10
2017-10-12T06:35:39.893Z,6.93
2017-10-12T06:38:06.932Z,6.10
2017-10-12T06:40:33.683Z,6.70
2017-10-12T06:43:08.527Z,6.57
2017-10-12T06:45:43.849Z,6.80
2017-10-12T06:48:18.623Z,7.70
2017-10-12T06:50:55.974Z,8.50
2017-10-12T06:53:31.419Z,8.70
2017-10-12T06:56:07.072Z,7.70
2017-10-12T06:58:45.318Z,7.23
2017-10-12T07:01:21.146Z,7.30
2017-10-12T07:03:55.686Z,8.67
2017-10-12T07:06:30.229Z,8.23
2017-10-12T07:09:06.127Z,7.60
2017-10-12T07:11:41.308Z,7.50
2017-10-12T07:14:17.089Z,7.70
2017-10-12T07:16:51.639Z,8.00
2017-10-12T07:19:27.138Z,7.73
2017-10-12T07:22:01.756Z,8.40
2017-10-12T07:24:39.873Z,9.20
2017-10-12T07:27:15.584Z,8.40
2017-10-12T07:29:53.099Z,9.10
2017-10-12T07:32:29.997Z,8.17
2017-10-12T07:35:07.207Z,7.67
2017-10-12T07:37:42.174Z,8.90
2017-10-12T07:40:17.794Z,8.30
2017-10-12T07:42:53.177Z,7.90
2017-10-12T07:45:28.680Z,8.27
2017-10-12T07:48:03.380Z,9.50
2017-10-12T07:50:41.789Z,8.90
2017-10-12T07:53:16.206Z,8.30
2017-10-12T07:55:51.628Z,8.10
2017-10-12T07:58:26.245Z,9.30
2017-10-12T08:01:00.989Z,9.23
2017-10-12T08:03:35.475Z,9.20
2017-10-12T08:06:11.794Z,9.67
2017-10-12T08:08:46.581Z,9.73
2017-10-12T08:11:21.407Z,9.37
2017-10-12T08:13:55.885Z,10.40
2017-10-12T08:16:31.629Z,10.17
2017-10-12T08:19:06.373Z,10.40
2017-10-12T08:21:41.518Z,9.80
2017-10-12T08:24:16.052Z,9.53
2017-10-12T08:26:51.543Z,12.07
2017-10-12T08:29:26.123Z,11.27
2017-10-12T08:35:05.532Z,11.10
2017-10-12T08:37:40.786Z,11.70
2017-10-12T08:40:15.559Z,11.67
2017-10-12T08:42:50.833Z,13.00
2017-10-12T08:45:28.317Z,12.60
2017-10-12T08:48:03.126Z,12.40
2017-10-12T08:50:38.102Z,14.50
2017-10-12T08:53:12.756Z,15.07
2017-10-12T08:55:49.131Z,17.77
2017-10-12T08:58:23.580Z,12.07
2017-10-12T09:00:58.690Z,11.60
2017-10-12T09:03:33.506Z,13.23
2017-10-12T09:06:08.248Z,12.17
2017-10-12T09:08:42.809Z,13.17
2017-10-12T09:11:18.507Z,12.47
2017-10-12T09:13:53.750Z,14.03
2017-10-12T09:16:30.496Z,12.50
2017-10-12T09:19:05.547Z,10.60
2017-10-12T09:21:43.342Z,10.90
2017-10-12T09:24:18.747Z,11.00
2017-10-12T09:26:53.606Z,10.80
2017-10-12T09:29:28.089Z,10.07
2017-10-12T09:32:02.782Z,10.50
2017-10-12T09:34:37.617Z,10.70
2017-10-12T09:37:15.469Z,9.47
2017-10-12T09:39:50.877Z,7.40
2017-10-12T09:42:25.592Z,8.90
2017-10-12T09:45:00.336Z,7.87
2017-10-12T09:47:37.258Z,9.30
2017-10-12T09:50:11.933Z,5.60
2017-10-12T09:52:47.201Z,5.20
2017-10-12T09:55:22.077Z,5.20
2017-10-12T09:57:58.751Z,3.70
2017-10-12T10:00:33.727Z,3.10
2017-10-12T10:03:09.741Z,2.83
2017-10-12T10:05:44.409Z,2.73
2017-10-12T10:08:20.609Z,3.43
2017-10-12T10:10:55.193Z,2.97
2017-10-12T10:13:30.288Z,2.47
2017-10-12T10:16:05.406Z,2.23
2017-10-12T10:18:40.495Z,2.40
2017-10-12T10:21:14.909Z,2.20
2017-10-12T10:23:50.372Z,2.37
2017-10-12T10:26:27.619Z,2.50
2017-10-12T10:29:02.277Z,2.40
2017-10-12T10:31:28.952Z,2.60
2017-10-12T10:34:05.249Z,2.80
2017-10-12T10:36:39.774Z,2.97
2017-10-12T10:39:14.306Z,2.20
2017-10-12T10:41:49.052Z,2.33
2017-10-12T10:44:23.782Z,2.60
2017-10-12T10:46:58.661Z,2.70
2017-10-12T10:49:35.138Z,2.40
2017-10-12T10:52:10.155Z,2.20
2017-10-12T10:54:46.753Z,2.37
2017-10-12T10:57:21.797Z,2.53
2017-10-12T10:59:58.349Z,2.80
2017-10-12T11:02:32.864Z,2.70
2017-10-12T11:05:10.816Z,2.83
2017-10-12T11:07:46.166Z,2.40
2017-10-12T11:10:21.661Z,3.07
2017-10-12T11:12:56.350Z,3.37
2017-10-12T11:15:32.526Z,4.57
2017-10-12T11:18:07.382Z,5.17
2017-10-12T11:20:43.045Z,5.30
2017-10-12T11:23:17.537Z,4.27
2017-10-12T11:25:55.969Z,3.93
2017-10-12T11:28:31.078Z,4.60
2017-10-12T11:31:05.563Z,7.27
2017-10-12T11:33:40.042Z,5.23
2017-10-12T11:36:16.730Z,4.60
2017-10-12T11:38:52.064Z,4.87
2017-10-12T11:41:27.138Z,4.40
2017-10-12T11:44:02.447Z,4.40
2017-10-12T11:46:37.175Z,4.57
2017-10-12T11:49:12.169Z,4.30
2017-10-12T11:51:48.157Z,4.17
2017-10-12T11:54:23.327Z,5.20
2017-10-12T11:56:58.664Z,5.07
2017-10-12T11:59:33.197Z,5.53
2017-10-12T12:02:09.413Z,5.10
2017-10-12T12:04:43.880Z,5.10
2017-10-12T12:07:20.591Z,4.60
2017-10-12T12:09:59.721Z,4.43
2017-10-12T12:12:34.451Z,4.40
2017-10-12T12:15:09.160Z,4.00
2017-10-12T12:17:44.954Z,4.40
2017-10-12T12:20:19.897Z,4.10
2017-10-12T12:22:54.590Z,4.37
2017-10-12T12:25:31.586Z,3.60
2017-10-12T12:28:08.981Z,4.00
2017-10-12T12:30:44.187Z,3.93
2017-10-12T12:33:10.966Z,3.80
2017-10-12T12:35:46.331Z,4.37
2017-10-12T12:38:24.784Z,3.77
2017-10-12T12:40:59.451Z,3.50
2017-10-12T12:43:34.480Z,3.60
2017-10-12T12:46:09.572Z,3.80
2017-10-12T12:48:45.375Z,3.57
2017-10-12T12:51:20.183Z,3.73
2017-10-12T12:53:54.940Z,3.87
2017-10-12T12:56:29.767Z,3.53
2017-10-12T12:59:05.163Z,3.20
2017-10-12T13:01:40.088Z,3.20
2017-10-12T13:04:15.127Z,3.57
2017-10-12T13:06:49.777Z,4.03
2017-10-12T13:09:25.426Z,3.73
2017-10-12T13:12:00.173Z,3.10
2017-10-12T13:14:35.918Z,3.70
2017-10-12T13:17:11.044Z,3.60
2017-10-12T13:19:45.639Z,3.57
2017-10-12T13:22:20.862Z,3.93
2017-10-12T13:24:58.950Z,4.17
2017-10-12T13:27:48.587Z,3.63
2017-10-12T13:30:23.780Z,3.93
2017-10-12T13:32:58.312Z,3.97
2017-10-12T13:35:33.435Z,3.97
2017-10-12T13:38:08.006Z,4.17
2017-10-12T13:40:43.054Z,4.07
2017-10-12T13:43:18.004Z,4.27
2017-10-12T13:45:52.989Z,4.00
2017-10-12T13:48:31.524Z,4.30
2017-10-12T13:51:06.159Z,4.27
2017-10-12T13:53:41.044Z,4.67
2017-10-12T13:56:16.446Z,4.30
2017-10-12T13:58:51.186Z,4.07
2017-10-12T14:01:27.855Z,3.70
2017-10-12T14:04:02.304Z,3.40
2017-10-12T14:06:37.145Z,3.97
2017-10-12T14:09:11.969Z,4.23
2017-10-12T14:11:47.684Z,4.00
2017-10-12T14:14:22.293Z,4.50
2017-10-12T14:16:57.963Z,4.80
2017-10-12T14:19:34.738Z,4.63
2017-10-12T14:22:10.083Z,4.23
2017-10-12T14:24:44.915Z,4.13
2017-10-12T14:27:19.963Z,4.37
2017-10-12T14:29:54.646Z,4.60
2017-10-12T14:32:22.178Z,4.67
2017-10-12T14:34:57.926Z,5.13
2017-10-12T14:37:35.386Z,5.37
2017-10-12T14:40:10.315Z,4.60
2017-10-12T14:42:46.063Z,4.30
2017-10-12T14:45:20.525Z,5.03
2017-10-12T14:47:58.314Z,5.80
2017-10-12T14:50:33.350Z,5.07
2017-10-12T14:53:09.592Z,6.03
2017-10-12T14:55:44.366Z,5.40
2017-10-12T14:58:20.592Z,5.40
2017-10-12T15:00:55.739Z,6.93
2017-10-12T15:03:33.008Z,6.07
2017-10-12T15:06:08.042Z,6.30
2017-10-12T15:08:46.240Z,7.33
2017-10-12T15:11:21.418Z,7.67
2017-10-12T15:13:57.993Z,6.13
2017-10-12T15:16:32.677Z,5.47
2017-10-12T15:19:09.360Z,8.60
2017-10-12T15:21:44.309Z,10.23
2017-10-12T15:24:20.891Z,8.10
2017-10-12T15:26:55.878Z,8.00
2017-10-12T15:29:32.057Z,7.33
2017-10-12T15:32:07.071Z,7.43
2017-10-12T15:34:42.018Z,9.07
2017-10-12T15:37:17.166Z,5.60
2017-10-12T15:39:53.422Z,5.80
2017-10-12T15:42:30.648Z,7.23
2017-10-12T15:45:06.760Z,6.90
2017-10-12T15:47:47.496Z,6.97
2017-10-12T15:50:22.105Z,6.60
2017-10-12T15:52:48.758Z,6.50
2017-10-12T15:55:26.191Z,6.70
2017-10-12T15:57:52.942Z,8.30
2017-10-12T16:00:30.772Z,8.50
2017-10-12T16:03:06.155Z,8.10
2017-10-12T16:05:43.048Z,7.70
2017-10-12T16:08:18.520Z,6.33
2017-10-12T16:10:54.240Z,6.80
2017-10-12T16:13:35.110Z,6.20
2017-10-12T16:16:02.043Z,6.27
2017-10-12T16:18:37.434Z,5.60
2017-10-12T16:21:14.041Z,4.83
2017-10-12T16:23:51.860Z,5.80
2017-10-12T16:26:32.501Z,5.80
2017-10-12T16:29:13.014Z,6.17
2017-10-12T16:31:41.678Z,5.60
2017-10-12T16:34:17.175Z,4.83
2017-10-12T16:36:52.488Z,6.00
2017-10-12T16:39:27.188Z,5.43
2017-10-12T16:42:01.974Z,5.63
2017-10-12T16:44:37.052Z,4.90
2017-10-12T16:47:13.426Z,4.27
2017-10-12T16:49:54.925Z,5.17
2017-10-12T16:52:30.642Z,5.60
2017-10-12T16:55:05.678Z,4.77
2017-10-12T16:57:42.619Z,4.80
2017-10-12T17:00:17.392Z,5.87
2017-10-12T17:02:54.851Z,5.00
2017-10-12T17:05:30.628Z,5.60
2017-10-12T17:08:06.436Z,5.80
2017-10-12T17:10:41.748Z,5.70
2017-10-12T17:13:18.671Z,6.60
2017-10-12T17:15:53.773Z,7.53
2017-10-12T17:18:32.179Z,6.90
2017-10-12T17:21:07.666Z,7.70
2017-10-12T17:26:20.565Z,8.10
2017-10-12T17:28:59.627Z,8.87
2017-10-12T17:31:34.206Z,9.90
2017-10-12T17:34:13.096Z,10.67
2017-10-12T17:36:53.087Z,8.43
2017-10-12T17:39:28.985Z,9.10
2017-10-12T17:42:06.697Z,9.70
2017-10-12T17:44:46.430Z,8.77
2017-10-12T17:47:13.294Z,9.17
2017-10-12T17:49:49.379Z,9.30
2017-10-12T17:52:24.758Z,9.03
2017-10-12T17:55:00.052Z,11.23
2017-10-12T17:57:34.777Z,12.60
2017-10-12T18:00:10.991Z,12.43
2017-10-12T18:02:45.789Z,11.60
2017-10-12T18:05:21.437Z,8.23
2017-10-12T18:07:58.062Z,8.40
2017-10-12T18:10:34.188Z,8.10
2017-10-12T18:13:08.756Z,7.83
2017-10-12T18:15:44.673Z,7.53
2017-10-12T18:18:20.101Z,6.90
2017-10-12T18:20:57.656Z,7.07
2017-10-12T18:23:34.079Z,6.70
2017-10-12T18:26:08.985Z,7.80
2017-10-12T18:28:45.668Z,7.67
2017-10-12T18:34:24.542Z,7.80
2017-10-12T18:36:59.078Z,8.53
2017-10-12T18:39:33.907Z,8.60
2017-10-12T18:42:09.155Z,8.33
2017-10-12T18:44:46.239Z,8.97
2017-10-12T18:47:21.192Z,7.60
2017-10-12T18:52:30.669Z,7.70
2017-10-12T18:55:06.037Z,8.40
2017-10-12T18:57:41.094Z,9.00
2017-10-12T19:00:17.130Z,8.90
2017-10-12T19:02:52.604Z,9.47
2017-10-12T19:05:27.980Z,9.23
2017-10-12T19:08:02.695Z,7.87
2017-10-12T19:10:39.117Z,8.90
2017-10-12T19:13:14.005Z,8.77
2017-10-12T19:15:49.191Z,10.10
2017-10-12T19:18:24.609Z,8.57
2017-10-12T19:20:51.713Z,7.63
2017-10-12T19:23:26.353Z,7.63
2017-10-12T19:26:02.084Z,8.27
2017-10-12T19:28:37.392Z,7.23
2017-10-12T19:31:15.036Z,7.90
2017-10-12T19:33:50.082Z,7.30
2017-10-12T19:36:27.236Z,7.57
2017-10-12T19:39:01.897Z,7.03
2017-10-12T19:41:38.306Z,7.53
2017-10-12T19:44:13.761Z,7.30
2017-10-12T19:46:49.260Z,7.77
2017-10-12T19:49:16.125Z,9.10
2017-10-12T19:51:54.010Z,8.30
2017-10-12T19:54:28.753Z,7.60
2017-10-12T19:57:03.812Z,9.10
2017-10-12T19:59:39.158Z,8.70
2017-10-12T20:02:13.660Z,7.43
2017-10-12T20:04:48.497Z,7.70
2017-10-12T20:07:24.989Z,8.27
2017-10-12T20:10:00.522Z,7.07
2017-10-12T20:12:35.814Z,7.70
2017-10-12T20:15:11.283Z,7.00
2017-10-12T20:17:46.794Z,7.50
2017-10-12T20:20:22.320Z,7.17
2017-10-12T20:22:57.694Z,7.80
2017-10-12T20:25:33.182Z,6.80
2017-10-12T20:28:10.506Z,6.97
2017-10-12T20:30:46.047Z,7.70
2017-10-12T20:33:13.964Z,7.77
2017-10-12T20:35:48.648Z,8.10
2017-10-12T20:38:24.420Z,7.13
2017-10-12T20:41:02.278Z,5.43
2017-10-12T20:43:37.491Z,6.40
2017-10-12T20:46:12.299Z,7.30
2017-10-12T20:48:47.991Z,7.37
2017-10-12T20:51:22.557Z,6.10
2017-10-12T20:53:58.136Z,5.70
2017-10-12T20:56:33.013Z,5.20
2017-10-12T20:59:07.698Z,4.87
2017-10-12T21:01:42.290Z,5.10
2017-10-12T21:04:20.299Z,5.63
2017-10-12T21:06:55.930Z,5.60
2017-10-12T21:09:30.810Z,5.27
2017-10-12T21:12:01.019Z,5.23
2017-10-12T21:14:37.330Z,5.10
2017-10-12T21:17:14.832Z,4.37
2017-10-12T21:19:54.536Z,4.80
2017-10-12T21:22:29.669Z,4.70
2017-10-12T21:25:06.563Z,4.67
2017-10-12T21:27:42.405Z,4.20
2017-10-12T21:30:18.798Z,5.00
2017-10-12T21:32:56.183Z,3.63
2017-10-12T21:35:31.379Z,3.63
2017-10-12T21:38:05.929Z,4.00
2017-10-12T21:40:41.915Z,4.57
2017-10-12T21:43:17.300Z,4.63
2017-10-12T21:45:53.848Z,4.63
2017-10-12T21:48:31.406Z,4.83
2017-10-12T21:51:06.952Z,7.00
2017-10-12T21:53:44.599Z,6.23
2017-10-12T21:56:21.427Z,4.70
2017-10-12T21:59:00.975Z,4.50
2017-10-12T22:01:38.470Z,4.20
2017-10-12T22:04:14.416Z,3.93
2017-10-12T22:06:49.937Z,4.00
2017-10-12T22:09:26.720Z,3.80
2017-10-12T22:12:07.823Z,4.07
2017-10-12T22:14:48.118Z,4.07
2017-10-12T22:17:25.450Z,4.53
2017-10-12T22:20:00.089Z,4.30
2017-10-12T22:22:35.533Z,3.70
2017-10-12T22:25:10.342Z,3.90
2017-10-12T22:27:47.402Z,3.47
2017-10-12T22:30:22.683Z,3.93
2017-10-12T22:35:59.812Z,4.00
2017-10-12T22:38:35.171Z,3.57
2017-10-12T22:41:13.034Z,4.57
2017-10-12T22:43:50.294Z,4.63
2017-10-12T22:46:30.827Z,5.07
2017-10-12T22:49:05.790Z,5.13
2017-10-12T22:51:46.495Z,5.17
2017-10-12T22:54:23.648Z,4.70
2017-10-12T22:56:59.256Z,4.20
2017-10-12T22:59:40.499Z,4.80
2017-10-12T23:02:15.820Z,4.60
2017-10-12T23:05:02.454Z,4.40
2017-10-12T23:07:37.226Z,5.10
2017-10-12T23:10:13.151Z,4.30
2017-10-12T23:12:50.251Z,3.60
2017-10-12T23:15:31.181Z,4.10
2017-10-12T23:18:10.219Z,3.50
2017-10-12T23:20:44.959Z,4.27
2017-10-12T23:23:19.829Z,4.53
2017-10-12T23:25:56.763Z,3.63
2017-10-12T23:28:31.770Z,3.93
2017-10-12T23:31:06.602Z,4.50
2017-10-12T23:33:42.341Z,5.63
2017-10-12T23:36:28.164Z,7.10
2017-10-12T23:39:04.529Z,7.50
2017-10-12T23:41:45.238Z,6.60
2017-10-12T23:44:21.863Z,6.17
2017-10-12T23:47:00.021Z,5.93
2017-10-12T23:49:40.558Z,5.10
2017-10-12T23:52:15.489Z,4.83
2017-10-12T23:54:56.094Z,4.33
2017-10-12T23:57:30.986Z,4.37
